Time;durP1;ratioP1;P1;durP2;ratioP2;P2;SDS_P1;SDS_P2;PMS_P1;PMS_P2;Temp;Humidity;BMP_temperature;BMP_pressure;BME280_temperature;BME280_humidity;BME280_pressure;Samples;Min_cycle;Max_cycle;Signal;HPM_P1;HPM_P2
2021/12/17 00:00:08;;;;;;;50.42;19.13;;;8.40;99.90;;;;;;5105180;28;20036;-66
2021/12/17 00:05:06;;;;;;;58.25;19.58;;;8.40;99.90;;;;;;5104725;28;20098;-65
2021/12/17 00:07:35;;;;;;;54.45;19.80;;;8.40;99.90;;;;;;5101752;28;20080;-65
2021/12/17 00:10:18;;;;;;;62.70;22.13;;;8.40;99.90;;;;;;5106723;28;20047;-65
2021/12/17 00:12:45;;;;;;;60.25;20.70;;;8.40;99.90;;;;;;5102931;28;20594;-65
2021/12/17 00:15:11;;;;;;;58.53;21.13;;;8.40;99.90;;;;;;5099529;28;20051;-65
2021/12/17 00:17:48;;;;;;;52.63;18.63;;;8.40;99.90;;;;;;5104418;28;20056;-65
2021/12/17 00:51:11;;;;;;;61.92;20.67;;;8.30;99.90;;;;;;5104478;28;20060;-65
2021/12/17 00:53:29;;;;;;;60.75;18.52;;;8.30;99.90;;;;;;5101230;28;20060;-65
2021/12/17 00:55:55;;;;;;;65.68;19.15;;;8.30;99.90;;;;;;5096863;28;20109;-65
2021/12/17 00:58:21;;;;;;;68.95;19.65;;;8.30;99.90;;;;;;5103516;28;20074;-65
2021/12/17 01:00:47;;;;;;;64.50;20.27;;;8.30;99.90;;;;;;5104963;28;20509;-65
2021/12/17 01:03:13;;;;;;;64.22;20.67;;;8.30;99.90;;;;;;5104276;28;20055;-65
2021/12/17 01:05:40;;;;;;;65.15;19.88;;;8.20;99.90;;;;;;5108419;28;20056;-65
2021/12/17 01:08:06;;;;;;;68.10;21.17;;;8.30;99.90;;;;;;5103578;28;20044;-65
2021/12/17 01:10:37;;;;;;;70.82;20.30;;;8.30;99.90;;;;;;5099971;28;20055;-65
2021/12/17 01:13:07;;;;;;;67.05;20.65;;;8.20;99.90;;;;;;5110851;28;20047;-65
2021/12/17 01:15:33;;;;;;;73.60;20.50;;;8.30;99.90;;;;;;5103715;28;20048;-65
2021/12/17 01:18:05;;;;;;;68.72;19.05;;;8.20;99.90;;;;;;5104538;28;20077;-65
2021/12/17 01:20:51;;;;;;;65.97;20.42;;;8.30;99.90;;;;;;5100343;28;20043;-65
2021/12/17 01:23:48;;;;;;;61.88;19.15;;;8.20;99.90;;;;;;5102212;28;20059;-65
2021/12/17 01:37:01;;;;;;;65.43;17.75;;;8.20;99.90;;;;;;5104933;28;20083;-65
2021/12/17 01:40:36;;;;;;;65.70;18.73;;;8.30;99.90;;;;;;5102202;28;20052;-65
2021/12/17 01:42:21;;;;;;;65.65;20.23;;;8.20;99.90;;;;;;5106952;28;20381;-65
2021/12/17 01:44:46;;;;;;;62.55;21.38;;;8.20;99.90;;;;;;5113272;28;20118;-65
2021/12/17 01:47:13;;;;;;;69.80;18.67;;;8.30;99.90;;;;;;5106810;28;20185;-65
2021/12/17 02:00:32;;;;;;;67.35;20.35;;;8.40;99.90;;;;;;5107160;28;20062;-65
2021/12/17 02:03:00;;;;;;;58.28;18.10;;;8.30;99.90;;;;;;5120543;28;20044;-65
2021/12/17 02:05:26;;;;;;;49.72;17.05;;;8.50;99.90;;;;;;5102945;28;20055;-65
2021/12/17 02:07:55;;;;;;;46.15;16.52;;;8.50;99.90;;;;;;5109488;28;20608;-66
2021/12/17 02:29:25;;;;;;;50.60;16.33;;;8.40;99.90;;;;;;5105212;28;20048;-65
2021/12/17 02:31:56;;;;;;;46.88;16.58;;;8.40;99.90;;;;;;5118831;28;20116;-65
2021/12/17 02:34:44;;;;;;;44.47;17.23;;;8.30;99.90;;;;;;5105202;28;20048;-65
2021/12/17 02:37:14;;;;;;;52.63;16.85;;;8.30;99.90;;;;;;5123113;28;20060;-65
2021/12/17 02:42:39;;;;;;;49.05;16.17;;;8.30;99.90;;;;;;5102940;28;20117;-65
2021/12/17 02:48:08;;;;;;;37.90;14.02;;;8.40;99.90;;;;;;5103123;28;20514;-65
2021/12/17 02:50:37;;;;;;;39.65;14.48;;;8.30;99.90;;;;;;5105652;28;20070;-65
2021/12/17 02:53:07;;;;;;;38.63;13.25;;;8.30;99.90;;;;;;5105719;28;20040;-65
2021/12/17 02:55:39;;;;;;;43.63;14.88;;;8.40;99.90;;;;;;5106281;28;20108;-65
2021/12/17 02:58:06;;;;;;;38.60;15.70;;;8.40;99.90;;;;;;5095803;28;20055;-65
2021/12/17 03:00:34;;;;;;;36.88;13.95;;;8.50;99.90;;;;;;5103035;28;20044;-65
2021/12/17 03:03:03;;;;;;;32.47;13.75;;;8.60;99.90;;;;;;5103328;28;20079;-65
2021/12/17 03:05:29;;;;;;;33.33;14.50;;;8.40;99.90;;;;;;5106977;28;20488;-65
2021/12/17 03:07:56;;;;;;;34.28;12.77;;;8.50;99.90;;;;;;5105578;28;20051;-65
2021/12/17 03:10:23;;;;;;;33.13;13.77;;;8.60;99.90;;;;;;5099445;28;20119;-65
2021/12/17 03:12:53;;;;;;;31.65;12.73;;;8.60;99.90;;;;;;5121077;28;20536;-65
2021/12/17 03:23:40;;;;;;;29.40;12.88;;;8.60;99.90;;;;;;5029952;28;20053;-65
2021/12/17 03:26:12;;;;;;;26.00;11.52;;;8.60;99.90;;;;;;5026972;28;20058;-65
2021/12/17 03:28:40;;;;;;;26.85;11.90;;;8.60;99.90;;;;;;5027275;28;20065;-65
2021/12/17 03:31:07;;;;;;;30.88;12.30;;;8.70;99.90;;;;;;5043953;28;20079;-65
2021/12/17 03:33:33;;;;;;;26.25;12.73;;;8.70;99.90;;;;;;5045539;28;20052;-65
2021/12/17 03:36:00;;;;;;;28.58;12.70;;;8.70;99.90;;;;;;5044829;28;20057;-65
2021/12/17 03:38:27;;;;;;;29.95;12.75;;;8.70;99.90;;;;;;5049197;28;20083;-65
2021/12/17 03:41:04;;;;;;;27.85;11.95;;;8.70;99.90;;;;;;5041094;28;20101;-65
2021/12/17 03:43:31;;;;;;;38.35;13.55;;;8.60;99.90;;;;;;5027464;28;20060;-65
2021/12/17 03:45:57;;;;;;;37.72;13.25;;;8.50;99.90;;;;;;5044060;28;20540;-65
2021/12/17 03:48:23;;;;;;;31.83;13.20;;;8.50;99.90;;;;;;5028161;28;20053;-65
2021/12/17 03:50:49;;;;;;;37.25;14.98;;;8.50;99.90;;;;;;5028163;28;20055;-65
2021/12/17 03:53:15;;;;;;;41.38;14.20;;;8.50;99.90;;;;;;5025495;28;20112;-65
2021/12/17 03:55:41;;;;;;;34.72;14.38;;;8.40;99.90;;;;;;5092411;28;20121;-65
2021/12/17 03:58:06;;;;;;;42.97;14.20;;;8.50;99.90;;;;;;5102370;28;20117;-65
2021/12/17 04:00:33;;;;;;;34.88;14.18;;;8.40;99.90;;;;;;5103456;28;20043;-65
2021/12/17 04:02:59;;;;;;;41.10;14.70;;;8.30;99.90;;;;;;5105085;28;20097;-65
2021/12/17 04:05:25;;;;;;;38.35;13.07;;;8.30;99.90;;;;;;5101922;28;20035;-65
2021/12/17 04:07:50;;;;;;;33.63;12.00;;;8.30;99.90;;;;;;5106054;28;20050;-65
2021/12/17 04:10:19;;;;;;;44.50;13.48;;;8.20;99.90;;;;;;5109516;28;20039;-65
2021/12/17 04:12:57;;;;;;;42.10;14.13;;;8.20;99.90;;;;;;5105377;28;20036;-65
2021/12/17 04:15:33;;;;;;;42.67;13.75;;;8.10;99.90;;;;;;5100322;28;20107;-65
2021/12/17 04:17:59;;;;;;;52.15;14.63;;;8.10;99.90;;;;;;5102380;28;20040;-65
2021/12/17 04:20:25;;;;;;;32.83;12.10;;;8.10;99.90;;;;;;5106063;28;20047;-65
2021/12/17 04:22:51;;;;;;;44.28;13.77;;;8.10;99.90;;;;;;5105919;28;20040;-65
2021/12/17 04:25:16;;;;;;;43.30;13.38;;;8.00;99.90;;;;;;5104884;28;20051;-65
2021/12/17 04:27:42;;;;;;;43.08;14.25;;;8.00;99.90;;;;;;5103037;28;20549;-65
2021/12/17 04:30:08;;;;;;;29.30;12.25;;;8.10;99.90;;;;;;5088780;28;20040;-65
2021/12/17 04:32:34;;;;;;;28.55;10.63;;;8.00;99.90;;;;;;5103600;28;20129;-65
2021/12/17 04:35:00;;;;;;;32.95;11.50;;;8.10;99.90;;;;;;5105263;28;20047;-65
2021/12/17 04:37:26;;;;;;;34.28;9.90;;;8.10;99.90;;;;;;5103951;28;20040;-65
2021/12/17 04:39:52;;;;;;;30.70;9.65;;;8.00;99.90;;;;;;5103692;28;20074;-65
2021/12/17 04:42:31;;;;;;;29.58;10.50;;;8.10;99.90;;;;;;5109278;28;20040;-65
2021/12/17 04:44:58;;;;;;;25.05;9.65;;;8.00;99.90;;;;;;5105689;28;20082;-65
2021/12/17 04:58:21;;;;;;;18.30;7.78;;;8.00;99.90;;;;;;5101620;28;20078;-65
2021/12/17 05:00:47;;;;;;;19.73;7.85;;;8.10;99.90;;;;;;5103717;28;20037;-65
2021/12/17 05:03:13;;;;;;;21.83;8.02;;;8.10;99.90;;;;;;5103440;28;20051;-65
2021/12/17 05:05:39;;;;;;;18.35;7.00;;;8.10;99.90;;;;;;5121138;28;20059;-65
2021/12/17 05:08:10;;;;;;;15.50;6.70;;;7.90;99.90;;;;;;5107938;28;20044;-65
2021/12/17 05:21:47;;;;;;;17.15;7.05;;;8.00;99.90;;;;;;5048208;28;20046;-65
2021/12/17 05:24:12;;;;;;;18.33;7.90;;;8.00;99.90;;;;;;5029128;28;20180;-65
2021/12/17 05:26:38;;;;;;;16.98;6.72;;;8.00;99.90;;;;;;5030944;28;20080;-65
2021/12/17 05:29:04;;;;;;;17.45;7.40;;;8.00;99.90;;;;;;5045705;28;20041;-65
2021/12/17 05:31:29;;;;;;;19.00;6.85;;;7.90;99.90;;;;;;5046135;28;20585;-65
2021/12/17 05:33:59;;;;;;;16.45;7.32;;;8.00;99.90;;;;;;5026770;28;20144;-65
2021/12/17 05:36:25;;;;;;;15.67;6.37;;;7.90;99.90;;;;;;5028169;28;20041;-65
2021/12/17 05:38:50;;;;;;;19.35;6.82;;;7.90;99.90;;;;;;5047184;28;20115;-65
2021/12/17 05:41:16;;;;;;;18.73;7.72;;;8.00;99.90;;;;;;5046505;28;20132;-65
2021/12/17 05:43:42;;;;;;;17.73;6.75;;;7.90;99.90;;;;;;5046081;28;20053;-65
2021/12/17 05:46:13;;;;;;;17.08;7.80;;;8.00;99.90;;;;;;5029791;28;20099;-65
2021/12/17 05:48:40;;;;;;;20.25;8.25;;;8.00;99.90;;;;;;5028879;28;20132;-65
2021/12/17 05:51:09;;;;;;;17.92;7.97;;;7.90;99.90;;;;;;5030135;28;20056;-65
2021/12/17 05:53:36;;;;;;;18.60;7.32;;;7.90;99.90;;;;;;5044919;28;20052;-65
2021/12/17 05:56:02;;;;;;;19.27;8.45;;;7.90;99.90;;;;;;5030845;28;20213;-65
2021/12/17 05:58:28;;;;;;;17.08;8.10;;;7.90;99.90;;;;;;5103067;28;20063;-65
2021/12/17 06:00:54;;;;;;;19.25;7.72;;;8.00;99.90;;;;;;5108578;28;20047;-65
2021/12/17 06:03:20;;;;;;;17.60;8.63;;;7.90;99.90;;;;;;5111949;28;20048;-65
2021/12/17 06:05:46;;;;;;;18.05;8.30;;;7.90;99.90;;;;;;5054052;28;20043;-66
2021/12/17 06:08:12;;;;;;;20.45;8.68;;;7.90;99.90;;;;;;5087828;28;20055;-66
2021/12/17 06:10:38;;;;;;;19.25;8.02;;;7.90;99.90;;;;;;5074056;28;20047;-67
2021/12/17 06:13:04;;;;;;;21.02;8.52;;;7.80;99.90;;;;;;5084958;28;20050;-66
2021/12/17 06:15:30;;;;;;;17.50;7.75;;;7.90;99.90;;;;;;5090318;28;20054;-65
2021/12/17 06:17:56;;;;;;;24.15;8.20;;;7.80;99.90;;;;;;5094331;27;20043;-65
2021/12/17 06:20:24;;;;;;;16.75;7.43;;;7.90;99.90;;;;;;5096774;27;20035;-66
2021/12/17 06:22:50;;;;;;;21.65;8.60;;;7.80;99.90;;;;;;5071059;28;20048;-66
2021/12/17 06:25:17;;;;;;;17.60;7.72;;;7.90;99.90;;;;;;5083991;28;20051;-68
2021/12/17 06:27:43;;;;;;;16.90;7.38;;;7.80;99.90;;;;;;5060132;28;20231;-66
2021/12/17 06:30:14;;;;;;;19.40;7.78;;;7.80;99.90;;;;;;5098081;28;20499;-66
2021/12/17 06:32:40;;;;;;;18.55;7.53;;;7.80;99.90;;;;;;5103600;27;20058;-66
2021/12/17 06:35:07;;;;;;;17.20;6.93;;;7.80;99.90;;;;;;5108946;27;20550;-67
2021/12/17 06:37:33;;;;;;;17.45;7.03;;;7.90;99.90;;;;;;5073158;28;20284;-67
2021/12/17 06:39:59;;;;;;;14.23;6.82;;;7.90;99.90;;;;;;5080584;28;20591;-66
2021/12/17 06:42:26;;;;;;;19.02;7.70;;;7.90;99.90;;;;;;5075408;27;20074;-67
2021/12/17 06:44:55;;;;;;;14.93;6.53;;;7.80;99.90;;;;;;5109266;27;20466;-67
2021/12/17 06:47:30;;;;;;;15.45;6.40;;;7.90;99.90;;;;;;5077694;27;20049;-67
2021/12/17 06:54:36;;;;;;;16.35;6.60;;;7.90;99.90;;;;;;5094792;28;20438;-67
2021/12/17 06:55:53;;;;;;;15.95;6.70;;;7.90;99.90;;;;;;5072954;28;20514;-68
2021/12/17 06:58:43;;;;;;;16.92;7.45;;;7.90;99.90;;;;;;5073671;28;20048;-66
2021/12/17 07:17:13;;;;;;;17.85;8.68;;;7.90;99.90;;;;;;5109833;27;20229;-67
2021/12/17 07:22:48;;;;;;;19.70;9.18;;;7.90;99.90;;;;;;5096746;28;20035;-66
2021/12/17 07:28:09;;;;;;;18.60;9.02;;;7.90;99.90;;;;;;5062974;28;20043;-66
2021/12/17 07:33:32;;;;;;;19.17;8.70;;;7.90;99.90;;;;;;5101293;28;20051;-66
2021/12/17 07:36:07;;;;;;;23.70;10.25;;;7.90;99.90;;;;;;5083741;28;20079;-67
2021/12/17 07:38:38;;;;;;;21.73;9.23;;;7.90;99.90;;;;;;5057247;28;20096;-65
2021/12/17 07:41:08;;;;;;;19.35;9.30;;;7.90;99.90;;;;;;5079904;28;20051;-66
2021/12/17 07:43:41;;;;;;;17.67;9.00;;;7.90;99.90;;;;;;5084220;28;20089;-66
2021/12/17 07:46:10;;;;;;;17.35;9.20;;;7.90;99.90;;;;;;5089358;28;20043;-66
2021/12/17 07:48:37;;;;;;;21.80;10.00;;;7.90;99.90;;;;;;5085848;28;20048;-66
2021/12/17 07:51:05;;;;;;;21.00;10.73;;;7.90;99.90;;;;;;5082134;28;20297;-66
2021/12/17 07:53:31;;;;;;;19.95;8.98;;;7.90;99.90;;;;;;5085371;28;20111;-66
2021/12/17 07:56:00;;;;;;;21.48;9.82;;;8.00;99.90;;;;;;5089537;28;20057;-66
2021/12/17 07:58:27;;;;;;;19.73;9.27;;;7.90;99.90;;;;;;5085465;28;20099;-62
2021/12/17 08:00:53;;;;;;;19.70;9.05;;;7.90;99.90;;;;;;5088443;28;20043;-64
2021/12/17 08:03:19;;;;;;;18.42;9.15;;;7.90;99.90;;;;;;5113716;28;20048;-63
2021/12/17 08:05:44;;;;;;;19.17;10.10;;;7.90;99.90;;;;;;5058484;28;20051;-64
2021/12/17 08:08:11;;;;;;;19.83;10.38;;;7.90;99.90;;;;;;5062953;28;20375;-64
2021/12/17 08:10:37;;;;;;;19.80;9.93;;;8.00;99.90;;;;;;5096204;28;20047;-64
2021/12/17 08:13:05;;;;;;;24.23;10.05;;;7.90;99.90;;;;;;5094500;28;20044;-63
2021/12/17 08:15:37;;;;;;;22.25;9.68;;;8.00;99.90;;;;;;5100230;28;20085;-64
2021/12/17 08:26:10;;;;;;;21.23;10.35;;;8.00;99.90;;;;;;5069287;28;20059;-64
2021/12/17 08:31:17;;;;;;;21.40;11.18;;;8.00;99.90;;;;;;5085008;28;20047;-64
2021/12/17 08:33:43;;;;;;;21.33;10.63;;;8.10;99.90;;;;;;5081317;28;20120;-64
2021/12/17 08:36:09;;;;;;;20.75;10.45;;;8.10;99.90;;;;;;5069599;28;20048;-64
2021/12/17 08:38:35;;;;;;;25.23;12.27;;;8.00;99.90;;;;;;5080694;28;20059;-64
2021/12/17 08:41:01;;;;;;;22.33;11.27;;;8.10;99.90;;;;;;5066323;28;20047;-64
2021/12/17 08:43:27;;;;;;;26.33;12.48;;;8.00;99.90;;;;;;5080003;28;20075;-64
2021/12/17 08:45:53;;;;;;;24.05;11.93;;;8.00;99.90;;;;;;5086578;28;20047;-65
2021/12/17 08:48:19;;;;;;;23.75;10.48;;;8.20;99.90;;;;;;5101538;28;20557;-64
2021/12/17 08:50:45;;;;;;;24.83;11.65;;;8.10;99.90;;;;;;5080801;28;20044;-64
2021/12/17 08:53:11;;;;;;;22.25;10.82;;;8.10;99.90;;;;;;5075589;28;20150;-64
2021/12/17 08:55:36;;;;;;;24.10;10.88;;;8.20;99.90;;;;;;5077049;28;20076;-64
2021/12/17 08:58:03;;;;;;;23.48;11.25;;;8.20;99.90;;;;;;5081912;28;20106;-64
2021/12/17 09:00:29;;;;;;;24.25;10.98;;;8.30;99.90;;;;;;5080218;28;20389;-64
2021/12/17 09:02:59;;;;;;;24.85;12.13;;;8.20;99.90;;;;;;5070281;28;20769;-65
2021/12/17 09:05:26;;;;;;;27.33;12.23;;;8.30;99.90;;;;;;5082105;28;20159;-64
2021/12/17 09:07:52;;;;;;;25.17;12.25;;;8.30;99.90;;;;;;5053352;28;20360;-65
2021/12/17 09:10:21;;;;;;;25.45;12.52;;;8.30;99.90;;;;;;5097700;28;20188;-68
2021/12/17 09:12:48;;;;;;;23.05;11.85;;;8.40;99.90;;;;;;5072851;28;20048;-66
2021/12/17 09:15:14;;;;;;;24.67;11.95;;;8.40;99.90;;;;;;5103824;28;20055;-67
2021/12/17 09:17:40;;;;;;;21.77;11.40;;;8.30;99.90;;;;;;5052087;28;20048;-67
2021/12/17 09:20:06;;;;;;;22.88;11.18;;;8.50;99.90;;;;;;5094520;28;20044;-67
2021/12/17 09:22:35;;;;;;;21.10;10.93;;;8.40;99.90;;;;;;5105250;28;20193;-66
2021/12/17 09:25:01;;;;;;;21.20;11.38;;;8.40;99.90;;;;;;5108136;28;20050;-66
2021/12/17 09:27:27;;;;;;;23.48;12.13;;;8.50;99.90;;;;;;5074210;28;20056;-65
2021/12/17 09:29:52;;;;;;;23.77;11.80;;;8.50;99.90;;;;;;5076886;28;20040;-66
2021/12/17 09:32:18;;;;;;;22.35;11.95;;;8.60;99.90;;;;;;5036614;28;20049;-66
2021/12/17 09:34:44;;;;;;;20.70;10.98;;;8.60;99.90;;;;;;5073429;28;20048;-65
2021/12/17 09:37:09;;;;;;;23.83;11.88;;;8.60;99.90;;;;;;5062221;28;20071;-65
2021/12/17 09:39:35;;;;;;;22.08;10.70;;;8.50;99.90;;;;;;5057197;28;20056;-66
2021/12/17 09:42:02;;;;;;;21.60;11.27;;;8.60;99.90;;;;;;5087662;28;20079;-65
2021/12/17 09:44:27;;;;;;;20.85;11.95;;;8.70;99.90;;;;;;5090832;28;20059;-65
2021/12/17 09:46:57;;;;;;;18.83;9.95;;;8.70;99.90;;;;;;5085160;28;20348;-65
2021/12/17 09:49:24;;;;;;;19.98;10.48;;;8.80;99.90;;;;;;5092757;28;20062;-65
2021/12/17 09:51:50;;;;;;;17.17;10.10;;;8.80;99.90;;;;;;5088502;28;20071;-65
2021/12/17 09:54:17;;;;;;;18.17;10.07;;;8.70;99.90;;;;;;5075170;28;20060;-65
2021/12/17 09:56:44;;;;;;;18.10;11.07;;;8.90;99.90;;;;;;5074379;28;20048;-65
2021/12/17 09:59:10;;;;;;;19.50;10.65;;;8.80;99.90;;;;;;5072610;28;20158;-65
2021/12/17 10:01:42;;;;;;;17.60;9.93;;;8.90;99.90;;;;;;5065844;28;20349;-65
2021/12/17 10:04:15;;;;;;;17.17;10.50;;;8.90;99.90;;;;;;5082043;28;20206;-65
2021/12/17 10:06:41;;;;;;;18.42;10.20;;;8.90;99.90;;;;;;5077254;28;20051;-65
2021/12/17 10:09:07;;;;;;;17.95;10.32;;;9.00;99.90;;;;;;5110533;28;20078;-66
2021/12/17 10:11:33;;;;;;;15.43;9.88;;;9.00;99.90;;;;;;5107040;28;20048;-65
2021/12/17 10:14:22;;;;;;;16.92;10.10;;;9.00;99.90;;;;;;5074777;28;20132;-65
2021/12/17 10:16:48;;;;;;;17.40;10.50;;;9.00;99.90;;;;;;5076470;28;20624;-65
2021/12/17 10:20:00;;;;;;;16.55;9.85;;;9.10;99.90;;;;;;5093918;28;20051;-65
2021/12/17 10:22:25;;;;;;;17.38;9.52;;;9.00;99.90;;;;;;5077983;28;20054;-65
2021/12/17 10:25:03;;;;;;;17.10;10.48;;;9.10;99.90;;;;;;5074540;28;20068;-66
2021/12/17 10:27:32;;;;;;;17.65;10.35;;;9.10;99.90;;;;;;5065987;28;20104;-66
2021/12/17 10:29:59;;;;;;;16.98;9.57;;;9.10;99.90;;;;;;5085423;28;20068;-63
2021/12/17 10:32:27;;;;;;;16.15;9.73;;;9.00;99.90;;;;;;5083496;27;20054;-63
2021/12/17 10:35:04;;;;;;;21.63;10.70;;;9.00;99.90;;;;;;5093170;28;20050;-64
2021/12/17 10:37:35;;;;;;;16.42;9.57;;;9.10;99.90;;;;;;5095547;27;20054;-64
2021/12/17 10:40:14;;;;;;;16.23;9.88;;;9.00;99.90;;;;;;5108047;28;20119;-64
2021/12/17 10:42:43;;;;;;;16.40;9.65;;;9.10;99.90;;;;;;5109289;27;20051;-64
2021/12/17 10:45:13;;;;;;;15.88;9.55;;;9.00;99.90;;;;;;5087225;28;20605;-64
2021/12/17 10:47:57;;;;;;;19.38;9.95;;;9.10;99.90;;;;;;5079700;28;20047;-64
2021/12/17 10:50:26;;;;;;;19.05;10.63;;;8.90;99.90;;;;;;5086037;28;20082;-64
2021/12/17 10:52:57;;;;;;;19.10;11.85;;;9.00;99.90;;;;;;5088819;27;20074;-64
2021/12/17 10:55:25;;;;;;;19.55;11.20;;;9.00;99.90;;;;;;5084404;28;20479;-64
2021/12/17 10:57:57;;;;;;;18.23;10.52;;;9.00;99.90;;;;;;5092595;28;20096;-64
2021/12/17 11:00:23;;;;;;;17.80;10.70;;;9.00;99.90;;;;;;5083844;28;20043;-66
2021/12/17 11:02:50;;;;;;;24.85;11.73;;;8.90;99.90;;;;;;5083222;27;20142;-64
2021/12/17 11:05:17;;;;;;;20.50;11.23;;;8.90;99.90;;;;;;5074588;28;20060;-64
2021/12/17 11:07:50;;;;;;;19.15;10.98;;;8.90;99.90;;;;;;5108160;27;20051;-64
2021/12/17 11:10:23;;;;;;;20.88;11.23;;;9.00;99.90;;;;;;5062486;28;20036;-64
2021/12/17 11:12:49;;;;;;;21.63;11.90;;;8.90;99.90;;;;;;5102422;28;20044;-65
2021/12/17 11:15:25;;;;;;;21.05;11.48;;;9.00;99.90;;;;;;5092487;28;20046;-66
2021/12/17 11:17:53;;;;;;;22.70;10.32;;;9.00;99.90;;;;;;5088316;27;20051;-66
2021/12/17 11:20:29;;;;;;;18.30;10.35;;;8.90;99.90;;;;;;5098547;28;20044;-68
2021/12/17 11:22:57;;;;;;;22.83;11.38;;;9.00;99.90;;;;;;5090975;27;20114;-66
2021/12/17 11:25:24;;;;;;;21.63;11.05;;;9.10;99.90;;;;;;5097724;28;20545;-66
2021/12/17 11:27:52;;;;;;;20.23;10.82;;;9.00;99.90;;;;;;5090577;28;20077;-65
2021/12/17 11:30:24;;;;;;;22.27;11.18;;;9.10;99.90;;;;;;5091328;28;20448;-66
2021/12/17 11:32:52;;;;;;;18.48;9.65;;;9.10;99.90;;;;;;5092163;28;20081;-65
2021/12/17 11:35:21;;;;;;;22.30;11.47;;;9.20;99.90;;;;;;5110266;28;20094;-67
2021/12/17 11:37:50;;;;;;;18.25;10.65;;;9.30;99.90;;;;;;5087045;28;20286;-66
2021/12/17 11:40:32;;;;;;;20.90;10.57;;;9.30;99.90;;;;;;5099862;28;20147;-67
2021/12/17 11:43:36;;;;;;;19.13;9.15;;;9.40;99.90;;;;;;5091553;27;20054;-65
2021/12/17 11:46:14;;;;;;;17.88;10.68;;;9.40;99.90;;;;;;5105580;28;20042;-66
2021/12/17 11:48:48;;;;;;;21.85;9.68;;;9.40;99.90;;;;;;5096842;27;20078;-66
2021/12/17 11:51:23;;;;;;;18.55;9.50;;;9.50;99.90;;;;;;5072078;28;20331;-63
2021/12/17 11:53:52;;;;;;;19.52;9.77;;;9.40;99.90;;;;;;5073923;27;20069;-63
2021/12/17 11:56:31;;;;;;;16.17;9.90;;;9.50;99.90;;;;;;5120049;27;20071;-63
2021/12/17 11:58:57;;;;;;;15.15;8.88;;;9.50;99.90;;;;;;5094585;27;20043;-63
2021/12/17 12:01:51;;;;;;;19.27;9.73;;;9.50;99.90;;;;;;5102402;27;20067;-64
2021/12/17 12:04:35;;;;;;;20.08;9.90;;;9.50;99.90;;;;;;5069856;28;20040;-63
2021/12/17 12:07:10;;;;;;;17.55;9.85;;;9.60;99.90;;;;;;5061973;28;20070;-63
2021/12/17 12:10:05;;;;;;;15.40;9.32;;;9.50;99.90;;;;;;5079081;28;20052;-63
2021/12/17 12:12:42;;;;;;;15.32;9.30;;;9.60;99.90;;;;;;5075503;28;20138;-63
2021/12/17 12:15:17;;;;;;;17.48;8.68;;;9.70;99.90;;;;;;5100725;28;20047;-63
2021/12/17 12:17:58;;;;;;;18.33;9.75;;;9.60;99.90;;;;;;5078992;28;20101;-63
2021/12/17 12:20:51;;;;;;;16.25;9.70;;;9.60;99.90;;;;;;5090876;28;20044;-64
2021/12/17 12:23:32;;;;;;;15.00;8.52;;;9.70;99.90;;;;;;5088069;28;20051;-63
2021/12/17 12:26:04;;;;;;;12.77;7.97;;;9.60;99.90;;;;;;5100979;28;20047;-63
2021/12/17 12:28:44;;;;;;;11.95;7.20;;;9.70;99.90;;;;;;5098249;28;20137;-63
2021/12/17 12:34:04;;;;;;;14.30;7.45;;;9.80;99.90;;;;;;5068166;28;20058;-63
2021/12/17 12:36:52;;;;;;;18.77;13.27;;;9.70;99.90;;;;;;5107490;28;20482;-63
2021/12/17 12:39:38;;;;;;;11.70;7.75;;;9.80;99.90;;;;;;5068433;28;20783;-64
2021/12/17 12:42:23;;;;;;;11.35;6.82;;;9.80;99.90;;;;;;5077501;28;20271;-63
2021/12/17 12:44:49;;;;;;;12.57;7.03;;;9.70;99.90;;;;;;5080219;28;20051;-62
2021/12/17 12:47:23;;;;;;;10.90;6.40;;;9.80;99.90;;;;;;5083189;28;20048;-62
2021/12/17 12:49:50;;;;;;;9.95;5.00;;;9.80;99.90;;;;;;5078001;28;20271;-63
2021/12/17 12:52:24;;;;;;;10.13;6.13;;;9.80;99.90;;;;;;5072349;28;20051;-63
2021/12/17 12:54:56;;;;;;;8.70;5.22;;;9.70;99.90;;;;;;5122339;27;20051;-63
2021/12/17 12:57:34;;;;;;;8.27;4.82;;;9.80;99.90;;;;;;5098372;28;20055;-63
2021/12/17 13:00:28;;;;;;;9.05;5.00;;;9.70;99.90;;;;;;5076139;28;20352;-62
2021/12/17 13:03:00;;;;;;;8.25;5.20;;;9.70;99.90;;;;;;5051026;28;20410;-63
2021/12/17 13:05:26;;;;;;;8.25;5.13;;;9.80;99.90;;;;;;5064333;28;20040;-63
2021/12/17 13:08:00;;;;;;;9.25;5.20;;;9.80;99.90;;;;;;5078913;28;20055;-63
2021/12/17 13:10:38;;;;;;;8.77;4.90;;;9.70;99.90;;;;;;5096590;28;20035;-63
2021/12/17 13:13:21;;;;;;;9.93;5.72;;;9.70;99.90;;;;;;5090064;28;20044;-62
2021/12/17 13:16:02;;;;;;;8.02;4.90;;;9.70;99.90;;;;;;5095061;28;20101;-62
2021/12/17 13:24:16;;;;;;;7.65;4.50;;;9.90;99.90;;;;;;5070676;28;20075;-62
2021/12/17 13:26:52;;;;;;;8.18;4.47;;;9.80;99.90;;;;;;5121171;28;20050;-63
2021/12/17 13:29:31;;;;;;;5.80;3.97;;;9.80;99.90;;;;;;5058908;28;20044;-63
2021/12/17 13:32:14;;;;;;;4.95;3.20;;;9.80;99.90;;;;;;5094392;28;20052;-64
2021/12/17 13:34:56;;;;;;;4.80;2.85;;;9.80;99.90;;;;;;5083760;28;20044;-64
2021/12/17 13:37:24;;;;;;;4.03;2.50;;;9.80;99.90;;;;;;5084714;28;20051;-64
2021/12/17 13:39:57;;;;;;;3.47;2.28;;;9.80;99.90;;;;;;5098078;28;20051;-64
2021/12/17 13:42:22;;;;;;;4.13;2.38;;;9.80;99.90;;;;;;5084831;28;20048;-64
2021/12/17 13:44:52;;;;;;;4.50;2.53;;;9.80;99.90;;;;;;5096697;28;20051;-64
2021/12/17 13:47:35;;;;;;;4.43;2.90;;;9.80;99.90;;;;;;5089462;28;20056;-64
2021/12/17 13:50:03;;;;;;;5.38;2.47;;;9.80;99.90;;;;;;5068364;28;20508;-64
2021/12/17 13:52:32;;;;;;;3.40;2.17;;;9.90;99.90;;;;;;5085053;28;20054;-64
2021/12/17 13:55:00;;;;;;;4.90;2.20;;;9.90;99.90;;;;;;5091934;28;20050;-64
2021/12/17 13:57:29;;;;;;;3.78;2.08;;;9.80;99.90;;;;;;5047663;28;20079;-65
2021/12/17 14:00:17;;;;;;;3.88;2.40;;;9.80;99.90;;;;;;5081248;28;20046;-64
2021/12/17 14:02:45;;;;;;;4.05;2.30;;;9.80;99.90;;;;;;5080806;28;20110;-65
2021/12/17 14:05:27;;;;;;;6.00;2.47;;;9.70;99.90;;;;;;5081105;28;20039;-65
2021/12/17 14:07:59;;;;;;;5.10;2.40;;;9.80;99.90;;;;;;5090907;28;20098;-64
2021/12/17 14:10:30;;;;;;;3.38;2.40;;;9.70;99.90;;;;;;5085269;28;20128;-65
2021/12/17 14:12:56;;;;;;;3.58;2.60;;;9.80;99.90;;;;;;5085111;28;20630;-65
2021/12/17 14:15:26;;;;;;;4.15;2.40;;;9.70;99.90;;;;;;5103845;28;20039;-65
2021/12/17 14:18:01;;;;;;;3.60;2.20;;;9.70;99.90;;;;;;5094955;28;20047;-64
2021/12/17 14:20:57;;;;;;;3.88;2.63;;;9.70;99.90;;;;;;5089719;28;20130;-65
2021/12/17 14:23:25;;;;;;;3.83;2.90;;;9.70;99.90;;;;;;5083621;28;20044;-65
2021/12/17 14:25:53;;;;;;;5.30;2.75;;;9.70;99.90;;;;;;5100930;28;20066;-64
2021/12/17 14:28:37;;;;;;;3.25;2.60;;;9.60;99.90;;;;;;5071132;28;20621;-64
2021/12/17 14:31:29;;;;;;;4.18;3.03;;;9.70;99.90;;;;;;5099686;28;20048;-64
2021/12/17 14:34:00;;;;;;;3.65;2.83;;;9.70;99.90;;;;;;5065665;28;20062;-64
2021/12/17 14:36:38;;;;;;;7.28;3.33;;;9.60;99.90;;;;;;5080522;28;20520;-64
2021/12/17 14:39:12;;;;;;;6.07;3.80;;;9.60;99.90;;;;;;5079420;28;20380;-64
2021/12/17 14:41:55;;;;;;;7.15;4.72;;;9.70;99.90;;;;;;5087877;28;20052;-64
2021/12/17 14:47:07;;;;;;;5.80;4.28;;;9.80;99.90;;;;;;5064849;28;20146;-65
2021/12/17 15:00:35;;;;;;;8.43;5.38;;;9.70;99.90;;;;;;5084298;28;20051;-65
2021/12/17 15:05:47;;;;;;;8.00;5.82;;;9.70;99.90;;;;;;5101167;28;20056;-65
2021/12/17 15:08:14;;;;;;;10.05;6.47;;;9.70;99.90;;;;;;5085865;28;20048;-65
2021/12/17 15:10:40;;;;;;;6.78;4.90;;;9.70;99.90;;;;;;5089964;28;20117;-65
2021/12/17 15:13:06;;;;;;;8.07;5.90;;;9.80;99.90;;;;;;5089703;28;20373;-64
2021/12/17 15:15:37;;;;;;;7.35;5.43;;;9.70;99.90;;;;;;5102318;28;20075;-65
2021/12/17 15:18:13;;;;;;;7.95;5.47;;;9.70;99.90;;;;;;5074951;28;20043;-64
2021/12/17 15:20:40;;;;;;;6.45;4.95;;;9.70;99.90;;;;;;5093354;28;20047;-65
2021/12/17 15:23:06;;;;;;;8.75;5.40;;;9.70;99.90;;;;;;5086597;28;20052;-64
2021/12/17 15:25:33;;;;;;;12.52;5.97;;;9.60;99.90;;;;;;5103071;28;20062;-65
2021/12/17 15:27:59;;;;;;;9.35;6.22;;;9.50;99.90;;;;;;5090299;28;20109;-65
2021/12/17 15:30:28;;;;;;;9.15;5.40;;;9.50;99.90;;;;;;5090061;28;20044;-65
2021/12/17 15:32:54;;;;;;;7.35;6.00;;;9.50;99.90;;;;;;5078288;28;20048;-64
2021/12/17 15:35:23;;;;;;;7.20;5.38;;;9.40;99.90;;;;;;5085661;28;20052;-64
2021/12/17 15:37:49;;;;;;;7.47;5.55;;;9.50;99.90;;;;;;5083918;28;20082;-65
2021/12/17 15:40:16;;;;;;;8.65;5.97;;;9.40;99.90;;;;;;5075649;28;20055;-65
2021/12/17 15:42:42;;;;;;;9.10;5.95;;;9.50;99.90;;;;;;5066426;28;20048;-65
2021/12/17 15:45:09;;;;;;;10.23;6.45;;;9.60;99.90;;;;;;5093727;28;20040;-65
2021/12/17 15:47:35;;;;;;;8.50;5.82;;;9.60;99.90;;;;;;5082918;28;20089;-65
2021/12/17 15:50:01;;;;;;;8.52;5.35;;;9.60;99.90;;;;;;5098451;28;20073;-65
2021/12/17 15:52:33;;;;;;;9.48;5.82;;;9.60;99.90;;;;;;5102714;28;20557;-64